createdAt,value
2018-06-29T00:00:20.915Z,80.10
2018-06-29T00:02:50.897Z,80.10
2018-06-29T00:05:21.354Z,80.10
2018-06-29T00:07:50.826Z,80.10
2018-06-29T00:10:24.464Z,80.10
2018-06-29T00:12:54.648Z,80.10
2018-06-29T00:15:24.304Z,80.10
2018-06-29T00:17:55.344Z,80.10
2018-06-29T00:20:24.925Z,80.10
2018-06-29T00:22:55.138Z,80.10
2018-06-29T00:25:24.622Z,80.10
2018-06-29T00:27:54.844Z,80.10
2018-06-29T00:30:24.354Z,80.10
2018-06-29T00:32:54.375Z,80.10
2018-06-29T00:35:23.866Z,80.10
2018-06-29T00:37:53.665Z,80.10
2018-06-29T00:40:25.027Z,80.10
2018-06-29T00:42:54.408Z,80.10
2018-06-29T00:45:23.904Z,80.10
2018-06-29T00:47:54.528Z,80.10
2018-06-29T00:50:24.082Z,80.10
2018-06-29T00:52:53.564Z,80.10
2018-06-29T00:55:24.152Z,80.10
2018-06-29T00:57:54.659Z,80.10
2018-06-29T01:00:24.154Z,80.10
2018-06-29T01:02:54.019Z,80.20
2018-06-29T01:05:23.343Z,80.20
2018-06-29T01:10:21.774Z,80.20
2018-06-29T01:12:51.149Z,80.20
2018-06-29T01:15:20.731Z,80.90
2018-06-29T01:17:50.699Z,80.10
2018-06-29T01:20:21.246Z,80.10
2018-06-29T01:22:50.693Z,80.10
2018-06-29T01:27:49.944Z,80.30
2018-06-29T01:30:19.353Z,80.20
2018-06-29T01:32:49.412Z,80.30
2018-06-29T01:35:18.813Z,80.30
2018-06-29T01:37:48.308Z,80.30
2018-06-29T01:40:19.647Z,80.30
2018-06-29T01:42:49.092Z,80.30
2018-06-29T01:45:18.656Z,80.30
2018-06-29T01:47:48.175Z,80.30
2018-06-29T01:50:18.665Z,80.40
2018-06-29T01:52:47.990Z,80.40
2018-06-29T01:55:17.502Z,80.40
2018-06-29T01:57:47.004Z,80.40
2018-06-29T02:00:16.654Z,80.30
2018-06-29T02:02:46.126Z,80.40
2018-06-29T02:05:15.624Z,80.40
2018-06-29T02:07:45.122Z,80.40
2018-06-29T02:10:15.047Z,80.40
2018-06-29T02:12:44.592Z,80.40
2018-06-29T02:15:14.211Z,80.50
2018-06-29T02:17:43.717Z,80.50
2018-06-29T02:20:13.254Z,80.50
2018-06-29T02:22:42.780Z,80.50
2018-06-29T02:25:12.331Z,80.50
2018-06-29T02:27:41.840Z,80.50
2018-06-29T02:30:11.259Z,80.50
2018-06-29T02:32:41.513Z,80.40
2018-06-29T02:35:10.900Z,80.50
2018-06-29T02:37:40.359Z,80.50
2018-06-29T02:40:10.588Z,80.60
2018-06-29T02:42:40.289Z,80.60
2018-06-29T02:45:09.810Z,80.60
2018-06-29T02:47:39.221Z,80.60
2018-06-29T02:50:09.616Z,80.70
2018-06-29T02:52:39.017Z,80.60
2018-06-29T02:57:37.465Z,80.60
2018-06-29T03:00:08.315Z,80.50
2018-06-29T03:02:37.815Z,80.70
2018-06-29T03:05:07.338Z,80.80
2018-06-29T03:07:37.376Z,80.80
2018-06-29T03:10:06.816Z,81.50
2018-06-29T03:12:36.894Z,80.80
2018-06-29T03:15:06.532Z,80.80
2018-06-29T03:17:36.104Z,80.80
2018-06-29T03:20:05.711Z,80.70
2018-06-29T03:22:36.190Z,80.60
2018-06-29T03:25:06.408Z,80.80
2018-06-29T03:27:36.448Z,80.90
2018-06-29T03:30:06.487Z,80.80
2018-06-29T03:32:35.936Z,80.80
2018-06-29T03:35:06.154Z,80.80
2018-06-29T03:37:35.641Z,80.80
2018-06-29T03:40:05.326Z,80.80
2018-06-29T03:42:35.684Z,80.90
2018-06-29T03:45:08.293Z,80.60
2018-06-29T03:47:38.445Z,80.90
2018-06-29T03:50:08.671Z,80.90
2018-06-29T03:52:38.780Z,80.90
2018-06-29T03:55:08.203Z,80.80
2018-06-29T03:57:37.685Z,80.80
2018-06-29T04:00:07.175Z,80.80
2018-06-29T04:02:37.116Z,80.80
2018-06-29T04:05:11.110Z,80.90
2018-06-29T04:07:40.628Z,80.90
2018-06-29T04:10:09.781Z,80.90
2018-06-29T04:12:39.224Z,80.90
2018-06-29T04:15:08.991Z,80.90
2018-06-29T04:17:38.921Z,80.90
2018-06-29T04:20:08.453Z,80.90
2018-06-29T04:22:37.989Z,80.90
2018-06-29T04:25:07.495Z,81.00
2018-06-29T04:30:07.362Z,80.50
2018-06-29T04:32:37.523Z,81.00
2018-06-29T04:35:08.457Z,81.10
2018-06-29T04:37:37.843Z,81.10
2018-06-29T04:40:07.240Z,80.90
2018-06-29T04:42:36.632Z,80.90
2018-06-29T04:45:06.556Z,81.00
2018-06-29T04:47:36.600Z,81.10
2018-06-29T04:50:06.754Z,81.10
2018-06-29T04:52:36.729Z,81.20
2018-06-29T04:55:06.198Z,81.20
2018-06-29T04:57:35.582Z,81.20
2018-06-29T05:00:05.983Z,81.20
2018-06-29T05:02:35.498Z,81.20
2018-06-29T05:05:18.507Z,81.20
2018-06-29T05:07:48.790Z,81.20
2018-06-29T05:10:18.554Z,81.10
2018-06-29T05:12:48.974Z,81.20
2018-06-29T05:15:19.355Z,81.10
2018-06-29T05:17:54.663Z,81.10
2018-06-29T05:20:26.206Z,81.10
2018-06-29T05:23:00.256Z,81.10
2018-06-29T05:25:30.639Z,81.10
2018-06-29T05:28:00.508Z,81.10
2018-06-29T05:30:29.959Z,81.10
2018-06-29T05:33:04.033Z,81.20
2018-06-29T05:35:35.796Z,81.20
2018-06-29T05:38:05.647Z,81.20
2018-06-29T05:40:35.661Z,81.20
2018-06-29T05:43:05.455Z,81.20
2018-06-29T05:45:35.245Z,81.20
2018-06-29T05:48:04.864Z,81.20
2018-06-29T05:50:34.916Z,81.20
2018-06-29T05:53:05.057Z,81.20
2018-06-29T05:55:34.914Z,81.30
2018-06-29T05:58:05.653Z,81.30
2018-06-29T06:00:35.531Z,81.30
2018-06-29T06:03:05.071Z,81.30
2018-06-29T06:05:35.634Z,81.30
2018-06-29T06:08:07.030Z,81.20
2018-06-29T06:10:37.366Z,81.20
2018-06-29T06:13:06.780Z,81.20
2018-06-29T06:15:36.740Z,81.30
2018-06-29T06:18:06.955Z,81.30
2018-06-29T06:20:38.151Z,81.30
2018-06-29T06:23:19.331Z,81.30
2018-06-29T06:25:56.636Z,81.30
2018-06-29T06:30:55.705Z,81.30
2018-06-29T06:33:25.693Z,81.30
2018-06-29T06:35:55.364Z,81.20
2018-06-29T06:38:25.094Z,81.40
2018-06-29T06:40:54.557Z,81.40
2018-06-29T06:43:24.553Z,81.30
2018-06-29T06:45:54.406Z,81.30
2018-06-29T06:48:24.150Z,81.50
2018-06-29T06:50:53.797Z,81.50
2018-06-29T06:53:23.685Z,81.50
2018-06-29T06:55:53.448Z,81.50
2018-06-29T06:58:23.378Z,81.40
2018-06-29T07:00:54.076Z,81.40
2018-06-29T07:03:24.207Z,81.40
2018-06-29T07:05:53.602Z,81.50
2018-06-29T07:08:24.470Z,81.50
2018-06-29T07:10:54.760Z,81.40
2018-06-29T07:13:30.829Z,81.50
2018-06-29T07:16:02.039Z,81.50
2018-06-29T07:18:32.288Z,81.50
2018-06-29T07:21:03.204Z,81.50
2018-06-29T07:36:28.811Z,81.40
2018-06-29T07:39:09.477Z,81.00
2018-06-29T07:41:41.975Z,81.60
2018-06-29T07:44:24.477Z,82.10
2018-06-29T07:47:13.826Z,82.30
2018-06-29T07:50:04.886Z,82.30
2018-06-29T08:18:43.940Z,81.40
2018-06-29T08:21:41.020Z,81.80
2018-06-29T08:24:48.026Z,82.40
2018-06-29T08:27:44.257Z,82.30
2018-06-29T09:46:52.684Z,82.80
2018-06-29T09:49:22.609Z,81.30
2018-06-29T09:51:52.640Z,81.10
2018-06-29T09:54:22.573Z,81.00
2018-06-29T09:56:52.026Z,81.00
2018-06-29T09:59:21.550Z,80.90
2018-06-29T10:01:51.528Z,80.80
2018-06-29T10:04:21.953Z,80.80
2018-06-29T10:06:51.830Z,80.80
2018-06-29T10:09:21.871Z,80.60
2018-06-29T10:11:51.313Z,80.60
2018-06-29T10:14:21.016Z,80.40
2018-06-29T10:16:50.797Z,80.40
2018-06-29T10:19:20.648Z,80.40
2018-06-29T10:21:51.375Z,80.40
2018-06-29T10:24:21.240Z,80.30
2018-06-29T10:26:51.071Z,80.30
2018-06-29T10:29:21.352Z,80.40
2018-06-29T10:31:51.715Z,80.00
2018-06-29T10:34:21.668Z,79.90
2018-06-29T10:36:51.880Z,79.90
2018-06-29T10:39:25.044Z,80.00
2018-06-29T10:41:54.846Z,79.70
2018-06-29T10:44:25.032Z,79.70
2018-06-29T10:46:57.872Z,79.50
2018-06-29T10:49:28.748Z,79.40
2018-06-29T10:52:01.044Z,79.30
2018-06-29T10:54:30.615Z,79.20
2018-06-29T10:57:01.788Z,79.20
2018-06-29T10:59:31.504Z,79.20
2018-06-29T11:02:01.798Z,79.20
2018-06-29T11:04:32.054Z,79.20
2018-06-29T11:07:02.470Z,79.00
2018-06-29T11:09:33.582Z,78.90
2018-06-29T11:14:34.585Z,78.80
2018-06-29T11:17:04.428Z,78.70
2018-06-29T11:19:34.031Z,78.60
2018-06-29T11:22:03.556Z,78.60
2018-06-29T11:24:33.028Z,78.50
2018-06-29T11:27:02.667Z,78.40
2018-06-29T11:29:33.067Z,78.20
2018-06-29T11:32:03.334Z,77.80
2018-06-29T11:34:32.749Z,77.50
2018-06-29T11:37:02.191Z,77.10
2018-06-29T11:39:32.173Z,76.70
2018-06-29T11:42:02.437Z,76.40
2018-06-29T11:44:32.050Z,76.00
2018-06-29T11:47:02.896Z,75.20
2018-06-29T11:49:32.434Z,75.00
2018-06-29T11:52:01.839Z,74.50
2018-06-29T11:54:32.239Z,73.80
2018-06-29T11:57:02.086Z,73.40
2018-06-29T11:59:31.515Z,72.80
2018-06-29T12:02:01.860Z,72.90
2018-06-29T12:04:31.366Z,71.50
2018-06-29T12:07:01.837Z,70.90
2018-06-29T12:09:33.060Z,69.90
2018-06-29T12:12:03.672Z,69.00
2018-06-29T12:14:34.729Z,68.60
2018-06-29T12:17:04.290Z,68.00
2018-06-29T12:19:33.946Z,67.30
2018-06-29T12:22:04.072Z,67.10
2018-06-29T12:24:34.306Z,66.70
2018-06-29T12:29:36.676Z,64.60
2018-06-29T12:32:07.333Z,63.10
2018-06-29T12:34:47.212Z,62.10
2018-06-29T12:37:22.653Z,60.80
2018-06-29T12:39:58.015Z,60.80
2018-06-29T12:47:49.462Z,61.40
2018-06-29T12:50:27.901Z,60.50
2018-06-29T12:53:03.037Z,59.60
2018-06-29T12:55:32.639Z,59.10
2018-06-29T12:58:03.159Z,58.40
2018-06-29T13:00:33.962Z,57.60
2018-06-29T13:03:04.749Z,57.00
2018-06-29T13:05:34.258Z,56.90
2018-06-29T13:08:03.673Z,56.90
2018-06-29T13:10:33.471Z,57.10
2018-06-29T13:13:24.349Z,57.20
2018-06-29T13:18:23.595Z,58.00
2018-06-29T13:20:55.629Z,58.20
2018-06-29T13:23:27.108Z,58.40
2018-06-29T13:26:00.414Z,58.60
2018-06-29T13:28:29.969Z,58.60
2018-06-29T13:30:59.461Z,58.90
2018-06-29T13:33:29.011Z,59.20
2018-06-29T13:35:58.840Z,59.20
2018-06-29T13:38:28.230Z,59.00
2018-06-29T13:40:57.635Z,58.80
2018-06-29T13:43:27.530Z,58.80
2018-06-29T13:45:56.994Z,58.90
2018-06-29T13:48:26.870Z,59.10
2018-06-29T13:50:56.839Z,59.20
2018-06-29T13:53:26.378Z,59.40
2018-06-29T13:55:55.786Z,59.40
2018-06-29T13:58:25.964Z,59.60
2018-06-29T14:00:56.022Z,59.50
2018-06-29T14:03:30.950Z,59.00
2018-06-29T14:06:01.195Z,58.40
2018-06-29T14:08:30.606Z,57.80
2018-06-29T14:11:04.959Z,57.00
2018-06-29T14:13:34.408Z,56.00
2018-06-29T14:16:04.410Z,55.30
2018-06-29T14:18:34.526Z,55.00
2018-06-29T14:21:04.026Z,54.60
2018-06-29T14:23:33.631Z,54.40
2018-06-29T14:26:07.694Z,54.00
2018-06-29T14:31:08.284Z,52.20
2018-06-29T14:33:37.738Z,51.00
2018-06-29T14:36:11.081Z,50.20
2018-06-29T14:38:45.349Z,49.50
2018-06-29T14:41:14.729Z,49.30
2018-06-29T14:43:46.403Z,49.10
2018-06-29T14:46:22.905Z,49.20
2018-06-29T14:48:56.647Z,49.30
2018-06-29T14:51:28.735Z,49.40
2018-06-29T14:53:58.311Z,49.60
2018-06-29T14:56:28.536Z,49.90
2018-06-29T14:58:58.221Z,50.20
2018-06-29T15:01:28.380Z,50.60
2018-06-29T15:03:58.024Z,50.80
2018-06-29T15:06:28.668Z,51.10
2018-06-29T15:08:58.258Z,51.30
2018-06-29T15:11:29.287Z,51.50
2018-06-29T15:14:01.716Z,51.70
2018-06-29T15:16:32.164Z,51.80
2018-06-29T15:19:02.969Z,51.40
2018-06-29T15:21:32.525Z,50.80
2018-06-29T15:24:03.146Z,50.40
2018-06-29T15:26:33.660Z,49.60
2018-06-29T15:29:04.091Z,48.40
2018-06-29T15:31:33.872Z,47.50
2018-06-29T15:34:03.587Z,46.40
2018-06-29T15:36:32.987Z,45.30
2018-06-29T15:39:03.111Z,44.40
2018-06-29T15:41:33.341Z,43.30
2018-06-29T15:44:02.735Z,42.20
2018-06-29T15:46:33.875Z,41.40
2018-06-29T15:49:04.340Z,40.30
2018-06-29T15:51:38.191Z,39.20
2018-06-29T15:54:13.377Z,38.60
2018-06-29T15:56:45.008Z,38.00
2018-06-29T15:59:16.415Z,37.50
2018-06-29T16:01:50.796Z,37.00
2018-06-29T16:04:20.336Z,36.60
2018-06-29T16:06:50.689Z,36.20
2018-06-29T16:09:20.337Z,36.40
2018-06-29T16:11:50.474Z,35.50
2018-06-29T16:14:21.387Z,35.30
2018-06-29T16:16:53.524Z,35.00
2018-06-29T16:19:27.594Z,34.80
2018-06-29T16:21:58.412Z,34.90
2018-06-29T16:24:27.944Z,34.70
2018-06-29T16:26:58.098Z,34.50
2018-06-29T16:29:28.351Z,34.50
2018-06-29T16:31:58.020Z,34.40
2018-06-29T16:34:28.139Z,34.20
2018-06-29T16:36:59.837Z,34.20
2018-06-29T16:39:34.262Z,34.30
2018-06-29T16:42:03.763Z,34.50
2018-06-29T16:44:35.477Z,34.70
2018-06-29T16:47:06.607Z,35.00
2018-06-29T16:49:36.829Z,35.00
2018-06-29T16:52:06.976Z,35.10
2018-06-29T16:54:36.470Z,35.40
2018-06-29T16:57:06.157Z,35.70
2018-06-29T16:59:40.602Z,36.00
2018-06-29T17:02:10.645Z,36.70
2018-06-29T17:04:40.625Z,37.30
2018-06-29T17:07:25.795Z,37.90
2018-06-29T17:09:57.771Z,38.60
2018-06-29T17:12:35.469Z,39.50
2018-06-29T17:15:18.292Z,40.10
2018-06-29T17:17:53.171Z,40.80
2018-06-29T17:20:26.616Z,41.20
2018-06-29T17:23:10.253Z,41.40
2018-06-29T17:25:50.346Z,41.60
2018-06-29T17:28:20.871Z,41.70
2018-06-29T17:30:52.387Z,41.80
2018-06-29T17:33:32.052Z,42.00
2018-06-29T17:36:06.300Z,42.20
2018-06-29T17:38:42.284Z,42.20
2018-06-29T17:41:19.012Z,42.40
2018-06-29T17:43:50.464Z,42.50
2018-06-29T17:46:20.309Z,42.60
2018-06-29T17:48:49.745Z,42.70
2018-06-29T17:51:19.944Z,43.00
2018-06-29T17:53:49.522Z,43.20
2018-06-29T17:56:19.128Z,43.30
2018-06-29T17:58:50.315Z,43.50
2018-06-29T18:01:25.155Z,43.80
2018-06-29T18:03:55.737Z,43.90
2018-06-29T18:06:31.738Z,44.20
2018-06-29T18:09:01.566Z,44.50
2018-06-29T18:11:32.244Z,44.90
2018-06-29T18:14:02.719Z,45.20
2018-06-29T18:16:33.657Z,45.50
2018-06-29T18:19:04.687Z,45.90
2018-06-29T18:21:34.192Z,46.20
2018-06-29T18:24:04.006Z,46.60
2018-06-29T18:26:34.405Z,46.90
2018-06-29T18:29:03.807Z,47.40
2018-06-29T18:31:35.171Z,47.80
2018-06-29T18:34:04.981Z,48.90
2018-06-29T18:36:36.883Z,48.80
2018-06-29T18:41:40.018Z,49.80
2018-06-29T18:44:09.384Z,50.10
2018-06-29T18:46:39.281Z,50.50
2018-06-29T18:49:10.679Z,50.90
2018-06-29T18:51:40.491Z,51.30
2018-06-29T18:54:15.867Z,51.60
2018-06-29T18:56:47.232Z,51.90
2018-06-29T18:59:18.810Z,52.20
2018-06-29T19:01:49.548Z,52.50
2018-06-29T19:04:19.800Z,52.80
2018-06-29T19:06:49.325Z,53.00
2018-06-29T19:09:20.092Z,53.20
2018-06-29T19:11:49.798Z,53.60
2018-06-29T19:14:19.279Z,53.80
2018-06-29T19:16:55.289Z,54.00
2018-06-29T19:19:24.807Z,54.30
2018-06-29T19:21:56.380Z,54.50
2018-06-29T19:24:47.034Z,54.80
2018-06-29T19:27:17.649Z,55.10
2018-06-29T19:29:52.129Z,55.40
2018-06-29T19:35:13.868Z,56.20
2018-06-29T19:37:47.448Z,56.50
2018-06-29T19:53:40.246Z,56.70
2018-06-29T19:56:27.935Z,57.10
2018-06-29T19:59:07.043Z,55.50
2018-06-29T20:01:38.545Z,56.80
2018-06-29T20:04:08.284Z,57.70
2018-06-29T20:06:42.365Z,58.50
2018-06-29T20:11:42.493Z,59.40
2018-06-29T20:14:15.583Z,59.60
2018-06-29T20:16:45.444Z,59.90
2018-06-29T20:19:14.954Z,60.20
2018-06-29T20:21:45.456Z,60.40
2018-06-29T20:24:14.930Z,60.70
2018-06-29T20:26:45.296Z,60.90
2018-06-29T20:29:14.808Z,61.10
2018-06-29T20:31:44.424Z,61.40
2018-06-29T20:34:13.926Z,61.50
2018-06-29T20:36:43.444Z,61.70
2018-06-29T20:39:14.077Z,61.80
2018-06-29T20:41:43.524Z,61.80
2018-06-29T20:44:12.982Z,61.80
2018-06-29T20:46:43.202Z,61.90
2018-06-29T20:49:13.262Z,62.00
2018-06-29T20:51:42.844Z,62.10
2018-06-29T20:54:12.238Z,62.20
2018-06-29T20:56:42.402Z,62.30
2018-06-29T20:59:11.782Z,62.50
2018-06-29T21:01:41.215Z,62.60
2018-06-29T21:04:10.709Z,62.70
2018-06-29T21:06:40.267Z,62.80
2018-06-29T21:09:11.408Z,62.90
2018-06-29T21:11:41.621Z,63.00
2018-06-29T21:14:11.823Z,63.10
2018-06-29T21:16:41.339Z,63.10
2018-06-29T21:19:11.421Z,64.30
2018-06-29T21:21:40.853Z,63.30
2018-06-29T21:24:10.875Z,63.50
2018-06-29T21:26:40.299Z,63.60
2018-06-29T21:29:09.797Z,63.70
2018-06-29T21:31:39.927Z,63.80
2018-06-29T21:34:09.502Z,63.80
2018-06-29T21:36:39.020Z,64.60
2018-06-29T21:39:11.598Z,63.80
2018-06-29T21:41:42.256Z,63.90
2018-06-29T21:44:11.659Z,64.00
2018-06-29T21:46:41.714Z,64.00
2018-06-29T21:49:11.761Z,63.90
2018-06-29T21:51:41.229Z,63.90
2018-06-29T21:54:10.768Z,64.00
2018-06-29T21:56:40.303Z,64.00
2018-06-29T21:59:09.719Z,64.10
2018-06-29T22:01:39.132Z,64.10
2018-06-29T22:04:09.082Z,64.10
2018-06-29T22:06:38.610Z,64.20
2018-06-29T22:09:09.653Z,64.20
2018-06-29T22:11:39.223Z,64.30
2018-06-29T22:14:09.062Z,64.40
2018-06-29T22:16:38.618Z,64.40
2018-06-29T22:19:08.180Z,64.60
2018-06-29T22:21:38.336Z,64.90
2018-06-29T22:24:07.767Z,65.10
2018-06-29T22:26:37.191Z,65.30
2018-06-29T22:29:06.744Z,65.50
2018-06-29T22:31:36.253Z,65.60
2018-06-29T22:34:05.865Z,65.60
2018-06-29T22:36:35.307Z,65.90
2018-06-29T22:39:07.069Z,66.00
2018-06-29T22:41:36.411Z,66.20
2018-06-29T22:44:06.581Z,66.30
2018-06-29T22:49:05.973Z,66.50
2018-06-29T22:51:36.071Z,66.70
2018-06-29T22:54:05.446Z,66.70
2018-06-29T22:56:34.834Z,66.90
2018-06-29T22:59:04.260Z,67.10
2018-06-29T23:01:33.782Z,67.20
2018-06-29T23:04:03.166Z,67.30
2018-06-29T23:06:32.546Z,67.50
2018-06-29T23:09:02.475Z,67.50
2018-06-29T23:11:32.528Z,67.70
2018-06-29T23:14:01.874Z,67.80
2018-06-29T23:16:31.400Z,67.80
2018-06-29T23:19:00.863Z,68.00
2018-06-29T23:21:30.370Z,68.00
2018-06-29T23:23:59.742Z,68.00
2018-06-29T23:26:29.131Z,68.20
2018-06-29T23:28:58.497Z,68.40
2018-06-29T23:33:56.949Z,68.60
2018-06-29T23:36:26.348Z,68.60
2018-06-29T23:38:55.756Z,68.60
2018-06-29T23:41:25.182Z,69.60
2018-06-29T23:43:54.533Z,68.90
2018-06-29T23:46:23.929Z,68.90
2018-06-29T23:48:53.901Z,69.00
2018-06-29T23:51:23.385Z,69.10
2018-06-29T23:53:52.909Z,69.20
2018-06-29T23:56:22.784Z,69.20
2018-06-29T23:58:52.207Z,69.30
